Time;durP1;ratioP1;P1;durP2;ratioP2;P2;SDS_P1;SDS_P2;PMS_P1;PMS_P2;Temp;Humidity;BMP_temperature;BMP_pressure;BME280_temperature;BME280_humidity;BME280_pressure;Samples;Min_cycle;Max_cycle;Signal;HPM_P1;HPM_P2
2022/07/13 00:01:29;;;;;;;3.80;2.33;;;22.50;99.90;;;;;;5053612;28;20181;-50
2022/07/13 00:03:54;;;;;;;7.85;2.90;;;22.50;99.90;;;;;;5052962;28;20158;-50
2022/07/13 00:06:20;;;;;;;4.15;2.78;;;22.50;99.90;;;;;;5051457;28;20301;-50
2022/07/13 00:08:46;;;;;;;3.67;2.70;;;22.50;99.90;;;;;;5052846;28;20577;-50
2022/07/13 00:11:11;;;;;;;8.40;2.42;;;22.50;99.90;;;;;;5052685;28;20162;-47
2022/07/13 00:13:37;;;;;;;3.90;2.20;;;22.50;99.90;;;;;;5052158;28;20166;-48
2022/07/13 00:16:03;;;;;;;5.90;2.53;;;22.60;99.90;;;;;;5052533;28;20206;-45
2022/07/13 00:18:29;;;;;;;3.75;2.05;;;22.50;99.90;;;;;;5052981;28;20170;-46
2022/07/13 00:20:54;;;;;;;3.45;2.00;;;22.60;99.90;;;;;;5052746;28;20619;-48
2022/07/13 00:23:20;;;;;;;2.30;2.08;;;22.50;99.90;;;;;;5052498;28;20632;-49
2022/07/13 00:25:45;;;;;;;2.85;2.17;;;22.50;99.90;;;;;;5052664;28;20511;-50
2022/07/13 00:28:11;;;;;;;2.42;2.05;;;22.50;99.90;;;;;;5052772;28;20171;-44
2022/07/13 00:30:36;;;;;;;3.78;2.10;;;22.50;99.90;;;;;;5052594;28;20167;-43
2022/07/13 00:33:03;;;;;;;3.22;1.75;;;22.60;99.90;;;;;;5052722;28;20173;-43
2022/07/13 00:35:29;;;;;;;3.92;2.10;;;22.60;99.90;;;;;;5052724;28;20171;-43
2022/07/13 00:37:55;;;;;;;6.10;1.80;;;22.60;99.90;;;;;;5051841;28;20236;-45
2022/07/13 00:40:20;;;;;;;3.67;2.25;;;22.60;99.90;;;;;;5052298;28;20165;-44
2022/07/13 00:42:46;;;;;;;3.63;2.40;;;22.60;99.90;;;;;;5052274;28;20582;-42
2022/07/13 00:45:11;;;;;;;4.97;2.40;;;22.60;99.90;;;;;;5052358;28;20245;-45
2022/07/13 00:47:37;;;;;;;7.43;2.10;;;22.70;99.90;;;;;;5052441;28;20167;-45
2022/07/13 00:50:06;;;;;;;2.90;2.22;;;22.60;99.90;;;;;;5052181;28;20177;-46
2022/07/13 00:52:35;;;;;;;6.40;2.50;;;22.60;99.90;;;;;;5051656;28;20174;-45
2022/07/13 00:55:03;;;;;;;8.30;2.30;;;22.60;99.90;;;;;;5051929;28;20663;-46
2022/07/13 00:57:28;;;;;;;3.03;2.20;;;22.60;99.90;;;;;;5052364;28;20210;-45
2022/07/13 00:59:55;;;;;;;4.00;2.47;;;22.50;99.90;;;;;;5052082;28;20577;-43
2022/07/13 01:02:20;;;;;;;6.65;2.17;;;22.40;99.90;;;;;;5052035;28;20170;-44
2022/07/13 01:04:46;;;;;;;4.63;2.70;;;22.30;99.90;;;;;;5051861;28;20167;-43
2022/07/13 01:07:12;;;;;;;7.50;2.28;;;22.30;99.90;;;;;;5050776;28;20174;-43
2022/07/13 01:09:38;;;;;;;3.95;2.30;;;22.30;99.90;;;;;;5052031;28;20159;-43
2022/07/13 01:12:05;;;;;;;2.78;2.42;;;22.30;99.90;;;;;;5051925;28;20675;-44
2022/07/13 01:14:31;;;;;;;4.97;2.50;;;22.30;99.90;;;;;;5052116;28;20181;-43
2022/07/13 01:16:58;;;;;;;9.50;2.95;;;22.30;99.90;;;;;;5052338;28;20206;-44
2022/07/13 01:19:24;;;;;;;3.72;2.35;;;22.30;99.90;;;;;;5051755;28;20169;-45
2022/07/13 01:21:55;;;;;;;7.72;2.50;;;22.10;99.90;;;;;;5051807;28;20220;-45
2022/07/13 01:24:21;;;;;;;2.78;2.30;;;22.10;99.90;;;;;;5051845;28;20167;-44
2022/07/13 01:26:48;;;;;;;5.40;2.35;;;22.10;99.90;;;;;;5051749;28;20171;-43
2022/07/13 01:29:14;;;;;;;6.10;2.58;;;22.10;99.90;;;;;;5051790;28;20170;-44
2022/07/13 01:31:40;;;;;;;9.93;3.15;;;22.00;99.90;;;;;;5051691;28;20216;-43
2022/07/13 01:34:08;;;;;;;8.05;3.10;;;22.00;99.90;;;;;;5051742;28;20265;-43
2022/07/13 01:36:35;;;;;;;5.80;3.22;;;22.00;99.90;;;;;;5051564;28;20206;-43
2022/07/13 01:39:01;;;;;;;8.35;3.28;;;22.00;99.90;;;;;;5052032;28;20643;-43
2022/07/13 01:41:28;;;;;;;5.80;3.25;;;21.90;99.90;;;;;;5051911;28;20171;-43
2022/07/13 01:43:54;;;;;;;7.75;3.03;;;22.00;99.90;;;;;;5051559;28;20198;-44
2022/07/13 01:46:20;;;;;;;5.13;2.45;;;22.00;99.90;;;;;;5051836;28;20178;-43
2022/07/13 01:48:45;;;;;;;3.05;2.08;;;22.00;99.90;;;;;;5054405;28;20508;-44
2022/07/13 01:51:11;;;;;;;2.58;1.65;;;22.00;99.90;;;;;;5055735;28;20174;-44
2022/07/13 01:53:37;;;;;;;2.70;1.70;;;22.10;99.90;;;;;;5055464;28;20167;-43
2022/07/13 01:56:02;;;;;;;3.38;1.98;;;22.20;99.90;;;;;;5055285;28;20198;-43
2022/07/13 01:58:28;;;;;;;3.67;2.10;;;22.20;99.90;;;;;;5055727;28;20257;-44
2022/07/13 02:00:53;;;;;;;4.05;1.80;;;22.20;99.90;;;;;;5055381;28;20162;-46
2022/07/13 02:03:19;;;;;;;3.05;2.22;;;22.30;99.90;;;;;;5054599;28;20628;-44
2022/07/13 02:05:45;;;;;;;4.38;1.90;;;22.20;99.90;;;;;;5055203;28;20226;-45
2022/07/13 02:08:11;;;;;;;5.78;2.28;;;22.20;99.90;;;;;;5055336;28;20175;-47
2022/07/13 02:10:37;;;;;;;2.65;1.77;;;22.30;99.90;;;;;;5055281;28;20179;-47
2022/07/13 02:13:04;;;;;;;3.00;2.10;;;22.30;99.90;;;;;;5055175;28;20632;-48
2022/07/13 02:15:29;;;;;;;3.20;2.28;;;22.30;99.90;;;;;;5055396;28;20171;-48
2022/07/13 02:17:55;;;;;;;3.97;2.50;;;22.30;99.90;;;;;;5055279;28;20213;-46
2022/07/13 02:20:21;;;;;;;4.07;1.88;;;22.30;99.90;;;;;;5055029;28;20619;-46
2022/07/13 02:22:46;;;;;;;4.70;2.00;;;22.30;99.90;;;;;;5055040;28;20179;-45
2022/07/13 02:25:13;;;;;;;5.47;1.70;;;22.20;99.90;;;;;;5054994;28;20172;-46
2022/07/13 02:27:43;;;;;;;5.43;2.00;;;22.40;99.90;;;;;;5054867;28;20504;-45
2022/07/13 02:30:10;;;;;;;2.80;1.67;;;22.40;99.90;;;;;;5054797;28;20175;-46
2022/07/13 02:32:35;;;;;;;2.53;1.90;;;22.30;99.90;;;;;;5054707;28;20166;-44
2022/07/13 02:35:01;;;;;;;4.55;1.60;;;22.40;99.90;;;;;;5054717;28;20163;-48
2022/07/13 02:37:26;;;;;;;1.90;1.60;;;22.40;99.90;;;;;;5055023;28;20202;-46
2022/07/13 02:39:55;;;;;;;1.80;1.67;;;22.40;99.90;;;;;;5054572;28;20654;-48
2022/07/13 02:42:24;;;;;;;2.13;1.70;;;22.30;99.90;;;;;;5054785;28;20187;-48
2022/07/13 02:44:51;;;;;;;1.88;1.70;;;22.30;99.90;;;;;;5054538;28;20159;-47
2022/07/13 02:47:17;;;;;;;4.43;2.05;;;22.10;99.90;;;;;;5054710;28;20170;-46
2022/07/13 02:49:43;;;;;;;2.80;1.58;;;22.20;99.90;;;;;;5054446;28;20173;-47
2022/07/13 02:52:08;;;;;;;4.25;1.90;;;22.20;99.90;;;;;;5054424;28;20542;-44
2022/07/13 02:54:34;;;;;;;6.05;1.77;;;22.20;99.90;;;;;;5054464;28;20526;-43
2022/07/13 02:56:59;;;;;;;3.42;1.60;;;22.30;99.90;;;;;;5054492;28;20261;-46
2022/07/13 02:59:25;;;;;;;1.98;1.80;;;22.30;99.90;;;;;;5053352;28;20174;-46
2022/07/13 03:01:51;;;;;;;3.97;1.85;;;22.30;99.90;;;;;;5054146;28;20170;-48
2022/07/13 03:04:16;;;;;;;3.65;1.90;;;22.30;99.90;;;;;;5054184;28;20171;-46
2022/07/13 03:06:42;;;;;;;2.10;1.90;;;22.30;99.90;;;;;;5053978;28;20629;-49
2022/07/13 03:09:08;;;;;;;1.70;1.60;;;22.20;99.90;;;;;;5054027;28;20179;-43
2022/07/13 03:11:33;;;;;;;1.67;1.58;;;22.20;99.90;;;;;;5054065;28;20178;-44
2022/07/13 03:14:01;;;;;;;1.52;1.42;;;22.20;99.90;;;;;;5054466;28;20223;-43
2022/07/13 03:16:27;;;;;;;2.30;1.77;;;22.20;99.90;;;;;;5054344;28;20206;-43
2022/07/13 03:18:52;;;;;;;4.13;1.70;;;22.20;99.90;;;;;;5053874;28;20185;-47
2022/07/13 03:21:19;;;;;;;4.20;1.90;;;22.30;99.90;;;;;;5052558;28;20169;-44
2022/07/13 03:23:45;;;;;;;1.63;1.48;;;22.30;99.90;;;;;;5053888;28;20167;-45
2022/07/13 03:26:10;;;;;;;3.33;1.77;;;22.20;99.90;;;;;;5053773;28;20308;-45
2022/07/13 03:28:36;;;;;;;3.55;2.05;;;22.20;99.90;;;;;;5053552;28;20174;-46
2022/07/13 03:31:02;;;;;;;3.58;1.70;;;22.20;99.90;;;;;;5051400;28;20167;-46
2022/07/13 03:33:27;;;;;;;3.80;2.30;;;22.10;99.90;;;;;;5053691;28;20170;-43
2022/07/13 03:35:53;;;;;;;3.85;2.22;;;22.10;99.90;;;;;;5053405;28;20523;-44
2022/07/13 03:38:19;;;;;;;7.03;2.60;;;22.00;99.90;;;;;;5053700;28;20224;-43
2022/07/13 03:40:44;;;;;;;2.40;2.20;;;22.10;99.90;;;;;;5053517;28;20162;-44
2022/07/13 03:43:10;;;;;;;10.23;2.53;;;22.10;99.90;;;;;;5053365;28;20167;-43
2022/07/13 03:45:35;;;;;;;4.30;2.17;;;22.10;99.90;;;;;;5053638;28;20175;-43
2022/07/13 03:48:01;;;;;;;6.28;2.55;;;22.00;99.90;;;;;;5053279;28;20159;-44
2022/07/13 03:50:26;;;;;;;5.50;2.80;;;22.10;99.90;;;;;;5053670;28;20182;-43
2022/07/13 03:52:52;;;;;;;7.43;2.47;;;22.10;99.90;;;;;;5053227;28;20705;-44
2022/07/13 03:55:18;;;;;;;5.25;2.30;;;22.10;99.90;;;;;;5051850;28;20178;-43
2022/07/13 03:57:44;;;;;;;4.35;3.10;;;22.10;99.90;;;;;;5053232;28;20218;-42
2022/07/13 04:00:10;;;;;;;5.47;2.83;;;22.00;99.90;;;;;;5053128;28;20651;-43
2022/07/13 04:02:35;;;;;;;4.18;2.72;;;22.00;99.90;;;;;;5053027;28;20173;-43
2022/07/13 04:05:01;;;;;;;6.55;2.95;;;22.00;99.90;;;;;;5053026;28;20209;-43
2022/07/13 04:07:27;;;;;;;5.20;3.05;;;21.90;99.90;;;;;;5053242;28;20585;-43
2022/07/13 04:09:52;;;;;;;7.82;3.40;;;21.90;99.90;;;;;;5053174;28;20533;-43
2022/07/13 04:12:21;;;;;;;7.55;3.25;;;21.90;99.90;;;;;;5052857;28;20534;-44
2022/07/13 04:14:50;;;;;;;8.43;3.28;;;21.80;99.90;;;;;;5052820;28;20162;-43
2022/07/13 04:17:16;;;;;;;10.88;3.80;;;21.80;99.90;;;;;;5052721;28;20673;-43
2022/07/13 04:19:42;;;;;;;7.38;3.17;;;21.90;99.90;;;;;;5052712;28;20201;-48
2022/07/13 04:22:07;;;;;;;10.32;2.90;;;21.90;99.90;;;;;;5052714;28;20173;-47
2022/07/13 04:24:33;;;;;;;7.88;2.78;;;21.90;99.90;;;;;;5052636;28;20657;-45
2022/07/13 04:26:58;;;;;;;6.20;3.38;;;21.90;99.90;;;;;;5053095;28;20679;-44
2022/07/13 04:29:24;;;;;;;6.45;3.10;;;21.90;99.90;;;;;;5052537;28;20177;-47
2022/07/13 04:31:50;;;;;;;7.38;2.75;;;21.90;99.90;;;;;;5052397;28;20642;-48
2022/07/13 04:34:16;;;;;;;4.35;2.30;;;21.90;99.90;;;;;;5052470;28;20635;-49
2022/07/13 04:36:45;;;;;;;4.45;1.88;;;21.90;99.90;;;;;;5052640;28;20297;-46
2022/07/13 04:39:12;;;;;;;3.25;1.92;;;22.00;99.90;;;;;;5052411;28;20301;-43
2022/07/13 04:41:38;;;;;;;4.30;2.10;;;22.00;99.90;;;;;;5052291;28;20212;-44
2022/07/13 04:44:04;;;;;;;3.10;1.80;;;22.00;99.90;;;;;;5052314;28;20634;-43
2022/07/13 04:46:29;;;;;;;2.30;2.10;;;22.00;99.90;;;;;;5052635;28;20174;-44
2022/07/13 04:48:55;;;;;;;6.10;1.95;;;22.00;99.90;;;;;;5052540;28;20177;-43
2022/07/13 04:51:21;;;;;;;4.75;1.92;;;22.10;99.90;;;;;;5052026;28;20162;-46
2022/07/13 04:53:46;;;;;;;2.30;2.10;;;22.20;99.90;;;;;;5051361;28;20639;-43
2022/07/13 04:56:12;;;;;;;2.65;2.03;;;22.20;99.90;;;;;;5052087;28;20197;-43
2022/07/13 04:58:38;;;;;;;4.15;2.40;;;22.30;99.90;;;;;;5052011;28;20170;-44
2022/07/13 05:01:07;;;;;;;4.22;2.08;;;22.30;99.90;;;;;;5052257;28;20173;-44
2022/07/13 05:03:33;;;;;;;5.40;2.38;;;22.30;99.90;;;;;;5051968;28;20572;-44
2022/07/13 05:05:59;;;;;;;4.63;2.10;;;22.30;99.90;;;;;;5052073;28;20618;-45
2022/07/13 05:08:25;;;;;;;5.22;2.55;;;22.20;99.90;;;;;;5052518;28;20519;-43
2022/07/13 05:10:51;;;;;;;4.55;2.75;;;22.10;99.90;;;;;;5051825;28;20167;-44
2022/07/13 05:13:17;;;;;;;3.72;2.65;;;22.10;99.90;;;;;;5050303;28;20181;-44
2022/07/13 05:15:42;;;;;;;4.60;1.95;;;22.00;99.90;;;;;;5051684;28;20166;-44
2022/07/13 05:18:08;;;;;;;5.97;2.50;;;22.10;99.90;;;;;;5051855;28;20218;-43
2022/07/13 05:20:34;;;;;;;10.38;2.53;;;22.00;99.90;;;;;;5051846;28;20162;-45
2022/07/13 05:22:59;;;;;;;6.25;2.40;;;22.00;99.90;;;;;;5055207;28;20170;-43
2022/07/13 05:25:25;;;;;;;4.05;2.60;;;21.90;99.90;;;;;;5058725;28;20163;-44
2022/07/13 05:27:50;;;;;;;4.90;2.30;;;21.90;99.90;;;;;;5058342;28;20180;-44
2022/07/13 05:30:16;;;;;;;3.38;1.90;;;21.90;99.90;;;;;;5058266;28;20535;-46
2022/07/13 05:32:42;;;;;;;5.97;1.92;;;21.90;99.90;;;;;;5058306;28;20174;-43
2022/07/13 05:35:08;;;;;;;4.40;1.83;;;22.00;99.90;;;;;;5058225;28;20181;-43
2022/07/13 05:37:33;;;;;;;3.17;1.92;;;22.00;99.90;;;;;;5058157;28;20209;-50
2022/07/13 05:39:59;;;;;;;3.17;2.10;;;22.20;99.90;;;;;;5058462;28;20253;-47
2022/07/13 05:42:26;;;;;;;4.95;1.95;;;22.20;99.90;;;;;;5058594;28;20163;-49
2022/07/13 05:44:52;;;;;;;4.50;2.28;;;22.40;99.90;;;;;;5058430;28;20171;-49
2022/07/13 05:47:18;;;;;;;2.17;1.98;;;22.40;99.90;;;;;;5058448;28;20174;-46
2022/07/13 05:49:43;;;;;;;3.92;2.17;;;22.50;99.90;;;;;;5058036;28;20163;-48
2022/07/13 05:52:09;;;;;;;4.43;2.38;;;22.70;99.90;;;;;;5058148;28;20524;-47
2022/07/13 05:54:35;;;;;;;2.83;2.50;;;22.80;99.90;;;;;;5058080;28;20202;-50
2022/07/13 05:57:01;;;;;;;5.70;2.75;;;23.00;99.90;;;;;;5058226;28;20211;-47
2022/07/13 05:59:27;;;;;;;2.95;2.13;;;23.10;99.90;;;;;;5058392;28;20158;-50
2022/07/13 06:01:53;;;;;;;5.10;2.38;;;23.30;99.90;;;;;;5058108;28;20527;-49
2022/07/13 06:04:19;;;;;;;4.57;2.50;;;23.50;99.90;;;;;;5058114;28;20578;-49
2022/07/13 06:06:45;;;;;;;7.63;2.65;;;23.60;99.90;;;;;;5057998;28;20312;-47
2022/07/13 06:09:11;;;;;;;8.63;4.72;;;23.90;99.90;;;;;;5058064;28;20534;-51
2022/07/13 06:11:37;;;;;;;10.43;3.92;;;24.10;99.90;;;;;;5057950;28;20257;-48
2022/07/13 06:14:02;;;;;;;12.05;3.95;;;24.30;99.90;;;;;;5058074;28;20166;-50
2022/07/13 06:16:28;;;;;;;6.93;3.70;;;24.40;99.90;;;;;;5058229;28;20190;-51
2022/07/13 06:18:54;;;;;;;6.78;3.58;;;24.40;99.90;;;;;;5057945;28;20193;-50
2022/07/13 06:21:19;;;;;;;6.47;3.75;;;24.40;99.90;;;;;;5056427;28;20216;-46
2022/07/13 06:23:45;;;;;;;8.57;4.20;;;24.50;99.90;;;;;;5056382;28;20186;-47
2022/07/13 06:26:10;;;;;;;11.80;3.80;;;24.50;99.90;;;;;;5056487;28;20178;-43
2022/07/13 06:28:36;;;;;;;8.68;3.97;;;24.50;99.90;;;;;;5056900;28;20178;-45
2022/07/13 06:31:01;;;;;;;8.75;3.67;;;24.60;99.90;;;;;;5056422;28;20638;-50
2022/07/13 06:33:28;;;;;;;8.77;4.10;;;24.50;99.90;;;;;;5056315;28;20285;-52
2022/07/13 06:35:54;;;;;;;9.05;4.18;;;24.50;99.90;;;;;;5052635;28;20253;-49
2022/07/13 06:38:19;;;;;;;9.02;4.53;;;24.60;99.90;;;;;;5053201;28;20178;-47
2022/07/13 06:40:49;;;;;;;8.80;3.85;;;24.60;99.90;;;;;;5053170;28;20171;-45
2022/07/13 06:43:15;;;;;;;5.32;2.72;;;24.70;99.90;;;;;;5053405;28;20186;-51
2022/07/13 06:45:41;;;;;;;4.40;2.35;;;24.80;99.90;;;;;;5053377;28;20174;-48
2022/07/13 06:48:06;;;;;;;5.60;2.22;;;24.90;99.90;;;;;;5052999;28;20591;-49
2022/07/13 06:50:32;;;;;;;5.43;2.38;;;25.10;99.90;;;;;;5053055;28;20220;-48
2022/07/13 06:52:58;;;;;;;4.18;2.30;;;25.10;99.90;;;;;;5053326;28;20274;-53
2022/07/13 06:55:24;;;;;;;4.40;2.30;;;25.30;99.90;;;;;;5053837;28;20574;-50
2022/07/13 06:57:49;;;;;;;4.25;2.03;;;25.30;99.90;;;;;;5052751;28;20212;-51
2022/07/13 07:00:15;;;;;;;4.57;2.22;;;25.30;99.90;;;;;;5052984;28;20227;-50
2022/07/13 07:02:41;;;;;;;7.03;2.30;;;25.30;99.90;;;;;;5052800;28;20206;-49
2022/07/13 07:05:09;;;;;;;6.18;2.08;;;25.50;99.90;;;;;;5052526;28;20202;-51
2022/07/13 07:07:36;;;;;;;6.72;2.63;;;25.60;99.90;;;;;;5052964;28;20183;-51
2022/07/13 07:10:02;;;;;;;5.28;2.78;;;25.70;99.90;;;;;;5052649;28;20166;-50
2022/07/13 07:12:28;;;;;;;9.25;2.40;;;25.70;99.90;;;;;;5052866;28;20197;-46
2022/07/13 07:14:53;;;;;;;5.93;2.35;;;25.80;99.90;;;;;;5053010;28;20249;-45
2022/07/13 07:17:19;;;;;;;8.35;2.42;;;26.00;99.90;;;;;;5052446;28;20280;-43
2022/07/13 07:19:44;;;;;;;8.88;3.08;;;26.00;99.90;;;;;;5052784;28;20616;-50
2022/07/13 07:22:12;;;;;;;8.35;2.80;;;25.80;99.90;;;;;;5052576;28;20636;-46
2022/07/13 07:24:39;;;;;;;7.60;2.90;;;25.70;99.90;;;;;;5052335;28;20256;-44
2022/07/13 07:27:07;;;;;;;8.32;3.00;;;25.80;99.90;;;;;;5052308;28;20541;-44
2022/07/13 07:29:34;;;;;;;7.72;2.70;;;25.70;99.90;;;;;;5052220;28;20627;-44
2022/07/13 07:32:01;;;;;;;7.32;2.50;;;25.80;99.90;;;;;;5052437;28;20178;-44
2022/07/13 07:34:30;;;;;;;5.55;2.58;;;25.70;99.90;;;;;;5052711;28;20181;-44
2022/07/13 07:36:55;;;;;;;5.68;2.65;;;25.60;99.90;;;;;;5052369;28;20205;-44
2022/07/13 07:39:22;;;;;;;6.40;3.10;;;25.70;99.90;;;;;;5052057;28;20534;-44
2022/07/13 07:41:48;;;;;;;5.95;3.00;;;25.50;99.90;;;;;;5051895;28;20165;-43
2022/07/13 07:44:14;;;;;;;5.32;2.80;;;25.40;99.90;;;;;;5052205;28;20178;-44
2022/07/13 07:46:40;;;;;;;7.35;2.75;;;25.30;99.90;;;;;;5051638;28;20170;-44
2022/07/13 07:49:06;;;;;;;7.05;2.55;;;25.10;99.90;;;;;;5051834;28;20178;-46
2022/07/13 07:51:32;;;;;;;7.80;2.90;;;24.90;99.90;;;;;;5052155;28;20172;-44
2022/07/13 07:53:57;;;;;;;6.15;2.50;;;24.80;99.90;;;;;;5052393;28;20174;-45
2022/07/13 07:56:24;;;;;;;11.43;2.97;;;24.80;99.90;;;;;;5052037;28;20206;-45
2022/07/13 07:58:50;;;;;;;9.48;2.63;;;24.80;99.90;;;;;;5051826;28;20166;-44
2022/07/13 08:01:16;;;;;;;8.07;3.03;;;24.90;99.90;;;;;;5052343;28;20196;-44
2022/07/13 08:03:42;;;;;;;8.07;3.15;;;25.10;99.90;;;;;;5051712;28;20598;-45
2022/07/13 08:06:07;;;;;;;13.57;3.97;;;25.10;99.90;;;;;;5051459;28;20296;-47
2022/07/13 08:08:33;;;;;;;9.25;3.70;;;25.00;99.90;;;;;;5051630;28;20232;-45
2022/07/13 08:10:59;;;;;;;15.65;3.40;;;24.90;99.90;;;;;;5050395;28;20706;-44
2022/07/13 08:13:24;;;;;;;10.63;2.95;;;24.90;99.90;;;;;;5052119;28;20174;-45
2022/07/13 08:15:50;;;;;;;7.95;3.15;;;25.10;99.90;;;;;;5051336;28;20623;-46
2022/07/13 08:18:15;;;;;;;5.07;2.72;;;25.30;99.90;;;;;;5051351;28;20174;-45
2022/07/13 08:20:41;;;;;;;9.88;2.70;;;25.50;99.90;;;;;;5051228;28;20161;-47
2022/07/13 08:23:50;;;;;;;9.90;2.90;;;25.60;99.90;;;;;;5051326;28;20182;-47
2022/07/13 08:25:52;;;;;;;7.53;2.20;;;26.00;99.90;;;;;;5051112;28;20253;-47
2022/07/13 08:28:18;;;;;;;6.57;2.17;;;26.10;99.90;;;;;;5051126;28;20653;-47
2022/07/13 08:30:44;;;;;;;5.95;2.67;;;26.00;99.90;;;;;;5051004;28;20660;-48
2022/07/13 08:33:09;;;;;;;5.35;2.55;;;26.10;99.90;;;;;;5051161;28;20253;-46
2022/07/13 08:38:38;;;;;;;6.00;2.38;;;26.30;99.90;;;;;;5051044;28;20556;-46
2022/07/13 08:41:04;;;;;;;3.03;2.22;;;26.60;99.90;;;;;;5051006;28;20166;-48
2022/07/13 08:43:31;;;;;;;4.70;2.20;;;27.00;99.90;;;;;;5050598;28;20189;-47
2022/07/13 08:45:57;;;;;;;4.90;1.95;;;27.00;99.90;;;;;;5051338;28;20577;-45
2022/07/13 08:48:31;;;;;;;4.35;2.05;;;27.10;99.90;;;;;;5051034;28;20623;-45
2022/07/13 08:50:58;;;;;;;5.30;2.30;;;27.00;99.90;;;;;;5051080;28;20180;-46
2022/07/13 08:53:24;;;;;;;4.82;2.20;;;27.10;99.90;;;;;;5050838;28;20170;-48
2022/07/13 08:55:50;;;;;;;5.40;2.22;;;27.50;99.90;;;;;;5050904;28;20606;-45
2022/07/13 08:58:16;;;;;;;7.35;2.35;;;27.80;99.90;;;;;;5048887;28;20285;-46
2022/07/13 09:00:43;;;;;;;2.08;1.88;;;27.80;99.90;;;;;;5050824;28;20197;-48
2022/07/13 09:03:09;;;;;;;2.45;2.20;;;27.80;99.90;;;;;;5050837;28;20163;-46
2022/07/13 09:05:35;;;;;;;6.85;2.78;;;27.70;99.90;;;;;;5050554;28;20224;-44
2022/07/13 09:08:09;;;;;;;4.57;2.17;;;27.80;99.90;;;;;;5050803;28;20174;-46
2022/07/13 09:10:52;;;;;;;2.75;2.13;;;27.90;99.90;;;;;;5050437;28;20262;-45
2022/07/13 09:13:40;;;;;;;2.97;2.42;;;28.00;99.90;;;;;;5051149;28;20744;-45
2022/07/13 09:16:23;;;;;;;4.38;2.28;;;27.90;99.90;;;;;;5050783;28;20533;-44
2022/07/13 09:18:58;;;;;;;3.70;2.20;;;27.80;99.90;;;;;;5050409;28;20182;-45
2022/07/13 09:21:24;;;;;;;5.95;2.30;;;27.90;99.90;;;;;;5050755;28;20207;-44
2022/07/13 09:24:09;;;;;;;3.13;2.25;;;28.00;99.90;;;;;;5050704;28;20174;-46
2022/07/13 09:26:43;;;;;;;4.63;2.40;;;28.00;99.90;;;;;;5050652;28;20178;-46
2022/07/13 09:29:11;;;;;;;3.72;2.40;;;28.30;99.90;;;;;;5050384;28;20172;-45
2022/07/13 09:31:54;;;;;;;4.35;2.42;;;28.60;99.90;;;;;;5050784;28;20217;-44
2022/07/13 09:34:20;;;;;;;4.55;2.10;;;28.70;99.90;;;;;;5050816;28;20166;-44
2022/07/13 09:37:06;;;;;;;2.33;2.08;;;28.90;99.90;;;;;;5050691;28;20545;-44
2022/07/13 09:39:31;;;;;;;3.78;2.25;;;28.80;99.90;;;;;;5050137;28;20162;-43
2022/07/13 09:41:57;;;;;;;4.32;2.30;;;28.80;99.90;;;;;;5050523;28;20240;-43
2022/07/13 09:47:08;;;;;;;2.67;2.38;;;29.00;99.90;;;;;;5050565;28;20744;-44
2022/07/13 09:49:41;;;;;;;4.75;2.65;;;29.20;99.90;;;;;;5050642;28;20173;-44
2022/07/13 09:52:08;;;;;;;6.10;2.42;;;29.30;99.90;;;;;;5050430;28;20159;-45
2022/07/13 09:54:36;;;;;;;7.05;2.70;;;29.10;99.90;;;;;;5050392;28;20594;-46
2022/07/13 09:57:08;;;;;;;3.10;2.30;;;28.90;99.90;;;;;;5050334;28;20217;-44
2022/07/13 09:59:38;;;;;;;4.07;2.47;;;28.60;99.90;;;;;;5050627;28;20170;-44
2022/07/13 10:02:05;;;;;;;5.40;2.60;;;28.40;99.90;;;;;;5050262;28;20162;-44
2022/07/13 10:04:37;;;;;;;4.47;2.60;;;28.30;99.90;;;;;;5050215;28;20643;-44
2022/07/13 10:07:05;;;;;;;4.32;2.17;;;28.20;99.90;;;;;;5049844;28;20237;-47
2022/07/13 10:09:30;;;;;;;4.70;2.60;;;28.10;99.90;;;;;;5051943;28;20170;-44
2022/07/13 10:11:57;;;;;;;4.00;2.45;;;28.20;99.90;;;;;;5053956;28;20166;-47
2022/07/13 10:14:24;;;;;;;4.70;2.47;;;28.00;99.90;;;;;;5053973;28;20540;-45
2022/07/13 10:16:52;;;;;;;4.18;2.30;;;28.10;99.90;;;;;;5053631;28;20209;-44
2022/07/13 10:19:19;;;;;;;6.72;2.33;;;28.10;99.90;;;;;;5053482;28;20162;-46
2022/07/13 10:22:03;;;;;;;3.95;2.50;;;28.20;99.90;;;;;;5053328;28;20174;-44
2022/07/13 10:24:28;;;;;;;4.70;3.03;;;28.30;99.90;;;;;;5053864;28;20189;-47
2022/07/13 10:27:21;;;;;;;5.97;2.67;;;28.40;99.90;;;;;;5053600;28;20170;-49
2022/07/13 10:29:48;;;;;;;8.88;2.42;;;28.50;99.90;;;;;;5053448;28;20177;-45
2022/07/13 10:32:17;;;;;;;7.90;2.40;;;28.50;99.90;;;;;;5053611;28;20173;-45
2022/07/13 10:34:57;;;;;;;5.28;2.72;;;28.80;99.90;;;;;;5053959;28;20162;-47
2022/07/13 10:37:24;;;;;;;6.22;2.50;;;29.50;99.90;;;;;;5053351;28;20201;-46
2022/07/13 10:40:11;;;;;;;3.75;2.40;;;29.70;99.90;;;;;;5053381;28;20574;-44
2022/07/13 10:42:56;;;;;;;4.20;2.30;;;29.40;99.90;;;;;;5052296;28;20634;-44
2022/07/13 10:45:34;;;;;;;7.28;2.30;;;29.10;99.90;;;;;;5052349;28;20178;-45
2022/07/13 10:48:25;;;;;;;4.88;2.30;;;28.90;99.90;;;;;;5052622;28;20197;-44
2022/07/13 10:50:53;;;;;;;8.80;2.80;;;29.00;99.90;;;;;;5043693;28;20217;-43
2022/07/13 10:53:19;;;;;;;7.57;2.58;;;29.10;99.90;;;;;;5052936;28;20243;-47
2022/07/13 10:55:47;;;;;;;6.53;3.80;;;29.50;99.90;;;;;;5052697;28;20170;-47
2022/07/13 10:58:31;;;;;;;6.65;2.40;;;29.60;99.90;;;;;;5052833;28;20209;-44
2022/07/13 11:01:06;;;;;;;4.72;2.22;;;29.40;99.90;;;;;;5052935;28;20249;-44
2022/07/13 11:03:43;;;;;;;5.22;2.40;;;29.30;99.90;;;;;;5052893;28;20534;-48
2022/07/13 11:06:15;;;;;;;4.95;2.40;;;29.40;99.90;;;;;;5052764;28;20245;-44
2022/07/13 11:08:41;;;;;;;4.80;2.20;;;29.40;99.90;;;;;;5052264;28;20174;-44
2022/07/13 11:11:12;;;;;;;4.05;2.25;;;29.40;99.90;;;;;;5051699;28;20163;-47
2022/07/13 11:13:38;;;;;;;11.02;2.42;;;29.40;99.90;;;;;;5052265;28;20162;-49
2022/07/13 11:16:06;;;;;;;6.95;1.92;;;29.80;99.90;;;;;;5051279;28;20224;-48
2022/07/13 11:18:36;;;;;;;3.40;2.10;;;29.40;99.90;;;;;;5052583;28;20178;-46
2022/07/13 11:21:12;;;;;;;2.33;2.03;;;29.60;99.90;;;;;;5051952;28;20167;-45
2022/07/13 11:26:51;;;;;;;2.05;1.90;;;29.90;99.90;;;;;;5043188;28;20186;-46
2022/07/13 11:29:42;;;;;;;3.38;2.20;;;29.80;99.90;;;;;;5041929;28;20177;-51
2022/07/13 11:32:08;;;;;;;3.63;1.80;;;29.80;99.90;;;;;;5051476;28;20166;-44
2022/07/13 11:34:36;;;;;;;5.88;1.98;;;29.90;99.90;;;;;;5050092;28;20166;-45
2022/07/13 11:37:02;;;;;;;1.90;1.60;;;30.10;99.90;;;;;;5052016;28;20222;-50
2022/07/13 11:39:29;;;;;;;4.70;2.10;;;30.30;99.90;;;;;;5051629;28;20176;-48
2022/07/13 11:41:57;;;;;;;4.72;1.75;;;30.30;99.90;;;;;;5051864;28;20252;-45
2022/07/13 11:44:29;;;;;;;6.55;2.05;;;30.30;99.90;;;;;;5031506;28;20167;-47
2022/07/13 11:46:56;;;;;;;4.47;1.95;;;30.40;99.90;;;;;;5031852;28;20185;-46
2022/07/13 11:49:23;;;;;;;4.57;2.10;;;30.40;99.90;;;;;;5031909;28;20174;-52
2022/07/13 11:51:49;;;;;;;4.38;1.80;;;30.50;99.90;;;;;;5032193;28;20158;-46
2022/07/13 11:54:18;;;;;;;4.90;1.60;;;30.90;99.90;;;;;;5032193;28;20171;-44
2022/07/13 11:56:49;;;;;;;5.85;1.85;;;30.80;99.90;;;;;;5032118;28;20210;-45
2022/07/13 11:59:35;;;;;;;3.17;2.03;;;30.80;99.90;;;;;;5036986;28;20181;-44
2022/07/13 12:02:02;;;;;;;5.10;1.88;;;31.00;99.90;;;;;;5049392;28;20251;-44
2022/07/13 12:04:28;;;;;;;4.60;1.50;;;30.90;99.90;;;;;;5051295;28;20638;-47
2022/07/13 12:07:19;;;;;;;3.47;1.67;;;30.80;99.90;;;;;;5050668;28;20300;-46
2022/07/13 12:09:48;;;;;;;4.35;1.70;;;31.00;99.90;;;;;;5043302;28;20542;-46
2022/07/13 12:12:15;;;;;;;3.28;1.50;;;31.10;99.90;;;;;;5050641;28;20169;-44
2022/07/13 12:14:41;;;;;;;1.83;1.50;;;31.40;99.40;;;;;;5050650;28;20170;-43
2022/07/13 12:17:07;;;;;;;5.40;1.65;;;31.50;99.20;;;;;;5050113;28;20244;-45
2022/07/13 12:19:33;;;;;;;4.40;1.50;;;31.40;97.10;;;;;;5050860;28;20162;-47
2022/07/13 12:21:59;;;;;;;2.95;2.53;;;31.60;98.50;;;;;;5050912;28;20170;-44
2022/07/13 12:24:27;;;;;;;5.85;1.80;;;31.50;97.60;;;;;;5050469;28;20249;-48
2022/07/13 12:26:53;;;;;;;4.47;1.73;;;31.40;96.40;;;;;;5049822;28;20174;-44
2022/07/13 12:29:32;;;;;;;3.30;1.80;;;31.70;97.10;;;;;;5050486;28;20170;-47
2022/07/13 12:32:01;;;;;;;4.82;1.67;;;31.70;95.30;;;;;;5049527;28;20706;-46
2022/07/13 12:34:27;;;;;;;1.70;1.60;;;31.60;95.80;;;;;;5050702;28;20343;-46
2022/07/13 12:36:53;;;;;;;3.22;1.80;;;32.00;96.40;;;;;;5049772;28;20197;-47
2022/07/13 12:39:20;;;;;;;2.85;1.40;;;32.10;94.10;;;;;;5050089;28;20167;-47
2022/07/13 12:41:56;;;;;;;4.28;2.10;;;31.70;93.70;;;;;;5050891;28;20174;-46
2022/07/13 12:44:29;;;;;;;1.90;1.70;;;31.70;94.30;;;;;;5051057;28;20268;-44
2022/07/13 12:46:58;;;;;;;1.55;1.45;;;31.70;94.80;;;;;;5052347;28;20202;-45
2022/07/13 12:49:37;;;;;;;2.50;1.70;;;31.80;94.90;;;;;;5051176;28;20172;-45
2022/07/13 12:52:08;;;;;;;6.57;1.52;;;32.00;94.90;;;;;;5050797;28;20173;-45
2022/07/13 12:54:48;;;;;;;3.03;1.50;;;32.40;95.50;;;;;;5049261;28;20166;-44
2022/07/13 12:57:24;;;;;;;2.50;1.45;;;32.50;94.80;;;;;;5050941;28;20213;-44